Flight Track Log - Related Links

Times and Time Zones

All times are in EDT time to prevent confusion due to time zone crossing. See the EGF3145 flight status page for this flight to view local times or setup timezone preferences in your user account.

Time Position Orientation Groundspeed Altitude Reporting Facility
EDT Latitude Longitude Course Direction KTS MPH feet Rate Location/Type
Tue 01:52:51 PM 39.9939 -82.9086 275° West 164 189 1,200  Level Indianapolis Center
Tue 01:54:07 PM 39.9997 -82.9900 275° West 197 227 3,400 1,696 Climbing Indianapolis Center
Tue 01:55:09 PM 40.0528 -83.0031 349° North 236 272 5,100 1,790 Climbing Indianapolis Center
Tue 01:56:11 PM 40.1100 -82.9364 42° Northeast 274 315 7,100 2,177 Climbing Indianapolis Center
Tue 01:57:13 PM 40.1817 -82.8569 40° Northeast 280 322 9,600 1,659 Climbing Indianapolis Center
Tue 01:58:14 PM 40.2456 -82.7861 40° Northeast 297 342 10,500 1,024 Climbing Indianapolis Center
Tue 01:59:16 PM 40.3136 -82.7072 41° Northeast 330 380 11,700 1,548 Climbing Indianapolis Center
Tue 02:00:18 PM 40.3908 -82.6439 32° Northeast 327 376 13,700 1,756 Climbing Indianapolis Center
Tue 02:01:19 PM 40.4750 -82.6064 19° North 316 364 15,300 1,366 Climbing Indianapolis Center
Tue 02:02:21 PM 40.5586 -82.5650 21° North 318 366 16,500 1,161 Climbing Indianapolis Center
Tue 02:03:23 PM 40.6506 -82.4856 33° Northeast 355 409 17,700 1,161 Climbing Indianapolis Center
Tue 02:04:25 PM 40.7094 -82.3836 53° Northeast 350 403 18,900 1,220 Climbing Indianapolis Center
Tue 02:05:26 PM 40.7714 -82.2806 52° Northeast 354 407 20,200 1,268 Climbing Indianapolis Center
Tue 02:06:28 PM 40.8339 -82.1806 50° Northeast 352 405 21,500 1,210 Climbing Indianapolis Center
Tue 02:07:30 PM 40.8750 -82.0617 65° Northeast 360 414 22,700 1,171 Climbing Indianapolis Center
Tue 02:08:31 PM 40.9042 -81.9367 73° East 356 410 23,900 1,200 Climbing Indianapolis Center
Tue 02:09:30 PM 40.9361 -81.8061 72° East 345 397 25,100 1,109 Climbing Cleveland Center
Tue 02:10:30 PM 40.9708 -81.6831 69° East 350 403 26,100 950 Climbing Cleveland Center
Tue 02:11:30 PM 41.0011 -81.5544 73° East 355 409 27,000 450 Climbing Cleveland Center
Tue 02:12:30 PM 41.0356 -81.4172 72° East 368 423 27,000  Level Cleveland Center
Tue 02:13:30 PM 41.0739 -81.2717 71° East 391 450 27,000  Level Cleveland Center
Tue 02:14:30 PM 41.1103 -81.1178 73° East 415 478 27,000  Level Cleveland Center
Tue 02:15:30 PM 41.1506 -80.9608 71° East 432 497 27,000  Level Cleveland Center
Tue 02:16:30 PM 41.1883 -80.8039 72° East 441 507 27,000  Level Cleveland Center
Tue 02:17:30 PM 41.2283 -80.6467 71° East 441 507 27,000  Level Cleveland Center
Tue 02:18:30 PM 41.2658 -80.4919 72° East 436 502 27,000  Level Cleveland Center
Tue 02:19:30 PM 41.3031 -80.3344 72° East 442 509 27,000  Level Cleveland Center
Tue 02:20:30 PM 41.3403 -80.1739 73° East 442 509 27,000  Level Cleveland Center
Tue 02:21:30 PM 41.3792 -80.0131 72° East 447 514 27,000  Level Cleveland Center
Tue 02:22:30 PM 41.4136 -79.8689 72° East 447 514 27,000  Level Cleveland Center
Tue 02:23:30 PM 41.4500 -79.7050 73° East 447 514 27,000  Level Cleveland Center
Tue 02:24:30 PM 41.4883 -79.5436 72° East 447 514 27,000  Level Cleveland Center
Tue 02:25:30 PM 41.5264 -79.3794 73° East 452 520 27,000  Level Cleveland Center
Tue 02:26:30 PM 41.5642 -79.2150 73° East 458 527 27,000  Level Cleveland Center
Tue 02:27:30 PM 41.6017 -79.0447 74° East 463 533 27,000  Level Cleveland Center
Tue 02:28:30 PM 41.6389 -78.8800 73° East 463 533 27,000  Level Cleveland Center
Tue 02:29:30 PM 41.6778 -78.7094 73° East 463 533 27,000  Level Cleveland Center
Tue 02:30:30 PM 41.6958 -78.5336 82° East 463 533 27,000  Level Cleveland Center
Tue 02:31:30 PM 41.7111 -78.3550 83° East 471 542 27,000  Level Cleveland Center
Tue 02:33:21 PM 41.7456 -78.0272 82° East 477 549 27,000  Level New York Center
Tue 02:34:21 PM 41.7578 -77.8561 84° East 472 543 27,000  Level New York Center
Tue 02:35:21 PM 41.7744 -77.6828 83° East 472 543 27,000  Level New York Center
Tue 02:36:21 PM 41.7722 -77.5044 91° East 472 543 27,000  Level New York Center
Tue 02:37:21 PM 41.7278 -77.3303 109° East 472 543 27,000  Level New York Center
Tue 02:38:21 PM 41.6828 -77.1619 110° East 482 555 27,000  Level New York Center
Tue 02:39:21 PM 41.6353 -76.9936 111° Southeast 482 555 27,000  Level New York Center
Tue 02:40:21 PM 41.5878 -76.8256 111° Southeast 482 555 27,000  Level New York Center
Tue 02:41:21 PM 41.5475 -76.6750 110° East 482 555 27,000  Level New York Center
Tue 02:42:21 PM 41.4997 -76.5044 110° East 482 555 27,000  Level New York Center
Tue 02:43:21 PM 41.4578 -76.3347 108° East 482 555 27,000 -300 Level New York Center
Tue 02:44:21 PM 41.4000 -76.1419 112° Southeast 495 570 26,400 -800 Descending New York Center
Tue 02:45:21 PM 41.3514 -75.9722 111° Southeast 495 570 25,400 -1,000 Descending New York Center
Tue 02:46:21 PM 41.3042 -75.8083 111° Southeast 484 557 24,400 -950 Descending New York Center
Tue 02:47:21 PM 41.2589 -75.6478 111° Southeast 472 543 23,500 -700 Descending New York Center
Tue 02:48:21 PM 41.2089 -75.4953 114° Southeast 461 531 23,000 -250 Descending New York Center
Tue 02:49:21 PM 41.1544 -75.3425 115° Southeast 455 524 23,000  Level New York Center
Tue 02:50:21 PM 41.1019 -75.1850 114° Southeast 450 518 23,000 -450 Level New York Center
Tue 02:51:21 PM 41.0494 -75.0300 114° Southeast 450 518 22,100 -800 Descending New York Center
Tue 02:52:21 PM 41.0042 -74.8981 114° Southeast 450 518 21,400 -550 Descending New York Center
Tue 02:53:21 PM 40.9819 -74.7511 101° East 428 493 21,000 -200 Descending New York Center
Tue 02:54:21 PM 41.0108 -74.6372 71° East 356 410 21,000 -450 Level New York Center
Tue 02:55:21 PM 40.9919 -74.5125 101° East 342 394 20,100 -850 Descending New York Center
Tue 02:56:21 PM 40.9667 -74.3903 105° East 342 394 19,300 -550 Descending New York Center
Tue 02:57:21 PM 40.9431 -74.2681 104° East 342 394 19,000 -159 Descending New York Center
Tue 02:58:14 PM 40.9167 -74.1333 104° East 349 402 19,000 -756 Level New York TRACON
Tue 02:59:20 PM 40.8167 -74.0833 159° South 355 409 17,500 -1,381 Descending New York TRACON
Tue 03:00:20 PM 40.7333 -74.0500 163° South 347 399 16,100 -1,250 Descending New York TRACON
Tue 03:01:20 PM 40.6333 -74.0333 173° South 342 394 15,000 -1,158 Descending New York TRACON
Tue 03:02:14 PM 40.5500 -74.0000 163° South 328 377 13,900 -1,000 Descending New York TRACON
Tue 03:03:14 PM 40.4833 -73.9833 169° South 287 330 13,100 -1,150 Descending New York TRACON
Tue 03:04:14 PM 40.4167 -73.9333 150° Southeast 276 318 11,600 -1,619 Descending New York TRACON
Tue 03:05:20 PM 40.3333 -73.8833 155° Southeast 269 310 9,700 -1,905 Descending New York TRACON
Tue 03:06:20 PM 40.2833 -73.8167 135° Southeast 256 295 7,600 -2,100 Descending New York TRACON
Tue 03:07:20 PM 40.2667 -73.7500 108° East 235 270 5,500 -2,000 Descending New York TRACON
Tue 03:08:20 PM 40.3167 -73.7000 37° Northeast 201 231 3,600 -1,700 Descending New York TRACON
Tue 03:09:20 PM 40.3667 -73.6667 27° Northeast 212 244 2,100 -842 Descending New York TRACON
Tue 03:10:14 PM 40.4000 -73.6333 37° Northeast 207 238 2,000 -50 Descending New York TRACON
Tue 03:11:20 PM 40.4667 -73.6000 21° North 208 239 2,000  Level New York TRACON
Tue 03:12:20 PM 40.5000 -73.5833 21° North 183 211 2,000 50 Level New York TRACON
Tue 03:13:20 PM 40.5333 -73.6167 323° Northwest 134 154 2,100 -150 Climbing New York TRACON
Tue 03:14:20 PM 40.5667 -73.6500 323° Northwest 135 155 1,700 -400 Descending New York TRACON
Tue 03:15:20 PM 40.5833 -73.7000 294° West 143 165 1,300 -450 Descending New York TRACON
Tue 03:16:20 PM 40.6167 -73.7333 323° Northwest 141 162 800 -500 Descending New York TRACON
Tue 03:18:00 PM 40.6333 -73.7667 344° North  Level FlightAware Approximate

Login

Don't have an account? Register now (free) for customized features, flight alerts, and more!